createdAt,value
2024-05-09T00:00:41.977Z,16.40
2024-05-09T00:03:10.275Z,16.40
2024-05-09T00:05:40.237Z,16.40
2024-05-09T00:08:09.648Z,16.40
2024-05-09T00:10:38.869Z,16.30
2024-05-09T00:13:07.939Z,16.30
2024-05-09T00:15:36.156Z,16.30
2024-05-09T00:18:06.980Z,16.30
2024-05-09T00:20:38.968Z,16.30
2024-05-09T00:23:09.472Z,16.30
2024-05-09T00:25:36.875Z,16.20
2024-05-09T00:28:03.941Z,16.20
2024-05-09T00:43:08.901Z,16.10
2024-05-09T01:05:34.809Z,16.00
2024-05-09T01:08:02.510Z,15.80
2024-05-09T01:10:34.428Z,15.70
2024-05-09T01:13:03.783Z,15.70
2024-05-09T01:15:33.412Z,15.70
2024-05-09T01:18:18.533Z,15.70
2024-05-09T01:20:45.803Z,15.60
2024-05-09T01:23:16.219Z,15.60
2024-05-09T01:38:12.832Z,15.60
2024-05-09T01:40:40.490Z,15.50
2024-05-09T01:43:09.192Z,15.40
2024-05-09T01:45:37.235Z,15.40
2024-05-09T01:48:04.937Z,15.40
2024-05-09T01:50:38.376Z,15.40
2024-05-09T02:05:40.575Z,15.40
2024-05-09T02:08:12.093Z,15.20
2024-05-09T02:10:38.983Z,15.20
2024-05-09T02:13:07.842Z,15.20
2024-05-09T02:15:34.775Z,15.20
2024-05-09T02:20:35.752Z,15.10
2024-05-09T02:23:06.069Z,15.00
2024-05-09T02:25:33.589Z,14.90
2024-05-09T02:28:00.514Z,14.90
2024-05-09T02:30:37.889Z,14.90
2024-05-09T02:33:08.721Z,14.90
2024-05-09T02:35:36.499Z,14.80
2024-05-09T02:38:03.715Z,14.80
2024-05-09T02:40:36.774Z,14.80
2024-05-09T02:43:08.289Z,14.80
2024-05-09T02:45:36.086Z,14.80
2024-05-09T02:48:03.330Z,14.80
2024-05-09T02:50:37.340Z,14.80
2024-05-09T02:53:11.101Z,14.80
2024-05-09T02:55:39.000Z,14.70
2024-05-09T02:58:09.653Z,14.70
2024-05-09T03:00:40.414Z,14.70
2024-05-09T03:03:14.804Z,14.70
2024-05-09T03:05:46.463Z,14.70
2024-05-09T03:08:13.924Z,14.70
2024-05-09T03:10:41.970Z,14.70
2024-05-09T03:13:12.803Z,14.70
2024-05-09T03:15:40.931Z,14.70
2024-05-09T03:18:08.560Z,14.60
2024-05-09T03:30:39.090Z,14.60
2024-05-09T03:33:15.702Z,14.50
2024-05-09T03:35:44.232Z,14.50
2024-05-09T03:38:11.385Z,14.50
2024-05-09T03:40:48.748Z,14.40
2024-05-09T03:43:16.520Z,14.40
2024-05-09T03:48:11.689Z,14.40
2024-05-09T03:50:39.068Z,14.30
2024-05-09T03:53:10.469Z,14.30
2024-05-09T03:55:37.418Z,14.30
2024-05-09T03:58:04.624Z,14.30
2024-05-09T04:00:37.640Z,14.30
2024-05-09T04:03:09.670Z,14.20
2024-05-09T04:23:12.266Z,14.20
2024-05-09T04:55:38.085Z,14.10
2024-05-09T04:58:10.203Z,14.00
2024-05-09T05:00:39.120Z,13.90
2024-05-09T05:03:10.815Z,13.90
2024-05-09T05:05:43.547Z,14.00
2024-05-09T05:08:19.165Z,14.00
2024-05-09T05:10:47.504Z,13.90
2024-05-09T05:13:18.036Z,13.90
2024-05-09T05:15:47.782Z,14.00
2024-05-09T05:18:15.446Z,14.00
2024-05-09T05:20:42.739Z,14.00
2024-05-09T05:23:15.469Z,14.00
2024-05-09T05:25:42.865Z,13.90
2024-05-09T05:28:11.758Z,13.90
2024-05-09T05:30:40.881Z,13.90
2024-05-09T05:33:10.933Z,14.00
2024-05-09T05:35:37.983Z,14.00
2024-05-09T05:38:06.882Z,14.00
2024-05-09T05:40:37.177Z,14.00
2024-05-09T05:43:06.272Z,14.00
2024-05-09T05:45:33.189Z,14.10
2024-05-09T05:48:02.897Z,14.10
2024-05-09T05:50:35.878Z,14.10
2024-05-09T05:53:07.705Z,14.10
2024-05-09T05:55:36.218Z,14.10
2024-05-09T05:58:03.461Z,14.20
2024-05-09T06:00:37.838Z,14.20
2024-05-09T06:03:07.506Z,14.20
2024-05-09T06:05:35.787Z,14.30
2024-05-09T06:08:04.039Z,14.30
2024-05-09T06:10:37.947Z,14.30
2024-05-09T06:13:07.589Z,14.30
2024-05-09T06:15:35.444Z,14.30
2024-05-09T06:18:06.359Z,14.40
2024-05-09T06:20:36.575Z,14.40
2024-05-09T06:23:09.640Z,14.40
2024-05-09T06:25:38.448Z,14.50
2024-05-09T06:28:05.930Z,14.50
2024-05-09T06:33:02.983Z,14.60
2024-05-09T06:35:30.229Z,14.70
2024-05-09T06:37:58.270Z,14.70
2024-05-09T08:13:14.515Z,16.20
2024-05-09T08:15:41.561Z,16.60
2024-05-09T08:18:12.027Z,16.70
2024-05-09T08:20:40.303Z,16.70
2024-05-09T08:23:07.488Z,16.80
2024-05-09T08:30:34.126Z,16.90
2024-05-09T08:33:07.889Z,17.10
2024-05-09T08:35:37.113Z,17.20
2024-05-09T08:38:05.254Z,17.20
2024-05-09T08:40:35.854Z,17.30
2024-05-09T08:43:09.235Z,17.30
2024-05-09T08:45:38.888Z,17.30
2024-05-09T08:48:08.858Z,17.40
2024-05-09T08:50:40.308Z,17.40
2024-05-09T08:58:14.260Z,17.50
2024-05-09T09:00:44.504Z,17.60
2024-05-09T09:03:16.926Z,17.60
2024-05-09T09:05:53.158Z,17.60
2024-05-09T09:25:42.569Z,17.70
2024-05-09T09:28:09.893Z,18.00
2024-05-09T09:38:10.076Z,18.00
2024-05-09T09:40:45.090Z,18.20
2024-05-09T09:43:20.009Z,18.20
2024-05-09T09:45:51.556Z,18.30
2024-05-09T09:48:21.374Z,18.30
2024-05-09T09:50:51.135Z,18.40
2024-05-09T09:53:19.003Z,18.40
2024-05-09T09:55:47.027Z,18.40
2024-05-09T09:58:16.810Z,18.40
2024-05-09T10:00:44.855Z,18.50
2024-05-09T10:03:11.951Z,18.50
2024-05-09T10:05:42.080Z,18.60
2024-05-09T10:10:39.987Z,18.60
2024-05-09T10:13:08.483Z,18.60
2024-05-09T10:15:45.806Z,18.60
2024-05-09T10:18:13.461Z,18.60
2024-05-09T10:20:46.840Z,18.70
2024-05-09T11:20:58.019Z,18.70
2024-05-09T11:23:30.191Z,19.50
2024-05-09T11:25:58.542Z,19.40
2024-05-09T11:28:29.031Z,19.50
2024-05-09T11:31:10.056Z,19.50
2024-05-09T11:33:40.035Z,19.50
2024-05-09T11:36:08.698Z,19.50
2024-05-09T11:38:36.749Z,19.50
2024-05-09T11:41:04.972Z,19.50
2024-05-09T11:43:32.196Z,19.50
2024-05-09T11:45:59.525Z,19.60
2024-05-09T11:48:27.039Z,19.60
2024-05-09T11:50:55.131Z,19.60
2024-05-09T11:53:22.354Z,19.60
2024-05-09T11:55:49.193Z,19.60
2024-05-09T11:58:18.064Z,19.70
2024-05-09T12:00:46.378Z,19.60
2024-05-09T12:28:05.945Z,19.80
2024-05-09T12:30:37.714Z,19.80
2024-05-09T12:33:11.642Z,19.90
2024-05-09T12:35:39.804Z,19.90
2024-05-09T12:38:06.689Z,19.90
2024-05-09T12:40:37.740Z,19.90
2024-05-09T12:43:10.010Z,20.00
2024-05-09T12:45:38.468Z,20.00
2024-05-09T12:48:12.189Z,20.00
2024-05-09T12:50:40.499Z,20.00
2024-05-09T12:53:07.406Z,20.00
2024-05-09T12:55:44.200Z,20.00
2024-05-09T12:58:22.483Z,20.00
2024-05-09T14:50:38.540Z,20.00
2024-05-09T14:53:13.398Z,20.60
2024-05-09T14:55:43.065Z,20.60
2024-05-09T14:58:11.996Z,20.60
2024-05-09T15:00:45.995Z,20.60
2024-05-09T15:03:20.760Z,20.60
2024-05-09T15:05:48.742Z,20.60
2024-05-09T15:08:17.584Z,20.60
2024-05-09T15:10:44.851Z,20.60
2024-05-09T15:13:13.469Z,20.60
2024-05-09T15:15:42.768Z,20.60
2024-05-09T15:18:09.962Z,20.60
2024-05-09T15:20:37.897Z,20.70
2024-05-09T15:23:06.934Z,20.70
2024-05-09T15:25:35.214Z,20.70
2024-05-09T15:28:02.610Z,20.70
2024-05-09T15:30:32.401Z,20.70
2024-05-09T15:33:03.386Z,20.70
2024-05-09T19:55:38.737Z,20.80
2024-05-09T19:58:07.312Z,19.80
2024-05-09T20:00:38.163Z,19.80
2024-05-09T20:03:07.727Z,19.70
2024-05-09T20:05:36.984Z,19.70
2024-05-09T20:08:04.706Z,19.70
2024-05-09T20:10:35.096Z,19.50
2024-05-09T20:13:04.581Z,19.70
2024-05-09T20:15:33.688Z,19.60
2024-05-09T20:18:00.741Z,19.60
2024-05-09T20:20:35.950Z,19.50
2024-05-09T20:25:35.274Z,19.50
2024-05-09T20:28:02.359Z,19.50
2024-05-09T20:30:32.805Z,19.40
2024-05-09T20:33:05.534Z,19.40
2024-05-09T20:35:33.783Z,19.40
2024-05-09T20:38:01.955Z,19.40
2024-05-09T20:40:34.040Z,19.40
2024-05-09T20:43:05.341Z,19.40
2024-05-09T20:45:32.537Z,19.30
2024-05-09T20:48:00.639Z,19.30
2024-05-09T20:50:35.958Z,19.30
2024-05-09T20:53:08.164Z,19.20
2024-05-09T20:55:35.039Z,19.20
2024-05-09T20:58:01.954Z,19.20
2024-05-09T21:00:35.526Z,19.10
2024-05-09T21:03:08.055Z,19.10
2024-05-09T21:05:36.209Z,19.10
2024-05-09T21:08:03.220Z,19.10
2024-05-09T21:10:33.043Z,19.10
2024-05-09T21:13:02.405Z,19.00
2024-05-09T21:17:57.376Z,19.00
2024-05-09T21:20:30.933Z,18.90
2024-05-09T21:22:59.737Z,18.90
2024-05-09T21:25:26.586Z,18.90
2024-05-09T21:27:53.569Z,18.80
2024-05-09T21:30:31.582Z,18.80
2024-05-09T21:33:22.873Z,18.80
2024-05-09T21:35:49.801Z,18.70
2024-05-09T22:13:00.016Z,18.70
2024-05-09T22:15:27.182Z,18.40
2024-05-09T22:17:55.204Z,18.40
2024-05-09T22:20:28.908Z,18.30
2024-05-09T22:23:02.941Z,18.30
2024-05-09T22:25:31.161Z,18.30
2024-05-09T22:27:58.959Z,18.30
2024-05-09T22:30:34.320Z,18.30
2024-05-09T22:33:05.636Z,18.20
2024-05-09T22:35:32.715Z,18.20
2024-05-09T23:00:19.118Z,18.20
2024-05-09T23:02:48.919Z,17.90
2024-05-09T23:05:15.870Z,17.90
2024-05-09T23:07:42.817Z,17.80
2024-05-09T23:10:13.454Z,17.80
2024-05-09T23:12:47.532Z,17.80
2024-05-09T23:15:14.361Z,17.70
2024-05-09T23:17:41.443Z,17.70
2024-05-09T23:22:38.870Z,17.70
2024-05-09T23:25:06.851Z,17.70
2024-05-09T23:27:34.760Z,17.70
2024-05-09T23:30:01.636Z,17.60
2024-05-09T23:32:28.558Z,17.60
2024-05-09T23:34:55.469Z,17.60
2024-05-09T23:37:22.481Z,17.60
2024-05-09T23:39:49.391Z,17.50
2024-05-09T23:42:16.358Z,17.50
2024-05-09T23:44:43.672Z,17.50
2024-05-09T23:54:32.620Z,17.50
